createdAt,value
2022-08-20T00:00:13.977Z,101080.75
2022-08-20T00:02:43.449Z,101073.72
2022-08-20T00:05:10.957Z,101067.63
2022-08-20T00:07:37.535Z,101067.34
2022-08-20T00:10:06.848Z,101064.91
2022-08-20T00:12:35.112Z,101057.38
2022-08-20T00:15:01.922Z,101058.38
2022-08-20T00:17:34.795Z,101058.44
2022-08-20T00:20:01.328Z,101041.88
2022-08-20T00:22:28.132Z,101030.25
2022-08-20T00:24:54.629Z,101039.66
2022-08-20T00:27:21.126Z,101037.06
2022-08-20T00:29:47.889Z,101044.22
2022-08-20T00:32:14.499Z,101036.84
2022-08-20T00:34:42.390Z,101038.47
2022-08-20T00:37:09.251Z,101037.44
2022-08-20T00:39:36.182Z,101039.13
2022-08-20T00:42:03.134Z,101035.94
2022-08-20T00:44:29.746Z,101037.78
2022-08-20T00:46:56.272Z,101037.81
2022-08-20T00:49:28.088Z,101043.28
2022-08-20T00:52:00.128Z,101037.19
2022-08-20T00:54:39.742Z,101041.59
2022-08-20T00:57:10.590Z,101036.28
2022-08-20T00:59:40.120Z,101037.69
2022-08-20T01:02:10.300Z,101050.84
2022-08-20T01:04:37.378Z,101047.94
2022-08-20T01:07:05.916Z,101050.19
2022-08-20T01:09:58.210Z,101047.66
2022-08-20T01:12:20.416Z,101040.41
2022-08-20T01:14:47.437Z,101043.19
2022-08-20T01:17:24.692Z,101044.16
2022-08-20T01:19:55.069Z,101040.91
2022-08-20T01:22:47.641Z,101042.09
2022-08-20T01:25:23.936Z,101042.19
2022-08-20T01:27:53.220Z,101045.03
2022-08-20T01:30:25.300Z,101037.81
2022-08-20T01:32:51.809Z,101038.09
2022-08-20T01:35:21.144Z,101038.94
2022-08-20T01:37:47.636Z,101044.31
2022-08-20T01:40:17.706Z,101046.75
2022-08-20T01:42:58.715Z,101048.50
2022-08-20T01:45:29.243Z,101055.84
2022-08-20T01:47:57.433Z,101053.22
2022-08-20T01:50:26.562Z,101060.38
2022-08-20T01:53:16.775Z,101062.81
2022-08-20T01:55:43.733Z,101062.91
2022-08-20T01:58:10.567Z,101074.41
2022-08-20T02:00:37.457Z,101061.31
2022-08-20T02:03:04.274Z,101071.00
2022-08-20T02:05:33.225Z,101074.34
2022-08-20T02:08:00.193Z,101076.91
2022-08-20T02:10:26.750Z,101083.00
2022-08-20T02:12:53.331Z,101083.00
2022-08-20T02:15:34.794Z,101082.03
2022-08-20T02:18:05.753Z,101080.19
2022-08-20T02:20:35.041Z,101075.84
2022-08-20T02:23:01.673Z,101072.84
2022-08-20T02:25:31.051Z,101076.59
2022-08-20T02:27:58.069Z,101074.09
2022-08-20T02:30:29.185Z,101078.69
2022-08-20T02:33:00.891Z,101077.94
2022-08-20T02:35:28.096Z,101076.09
2022-08-20T02:37:55.465Z,101071.72
2022-08-20T02:40:27.325Z,101076.97
2022-08-20T02:42:57.721Z,101081.22
2022-08-20T02:45:24.293Z,101080.41
2022-08-20T02:47:53.831Z,101081.44
2022-08-20T02:50:21.501Z,101074.25
2022-08-20T02:52:51.471Z,101063.50
2022-08-20T02:55:27.860Z,101067.78
2022-08-20T02:57:58.519Z,101073.22
2022-08-20T03:00:26.606Z,101067.16
2022-08-20T03:02:53.076Z,101073.31
2022-08-20T03:05:19.646Z,101070.25
2022-08-20T03:07:48.953Z,101065.66
2022-08-20T03:10:16.046Z,101055.06
2022-08-20T03:12:42.592Z,101062.72
2022-08-20T03:15:17.495Z,101062.75
2022-08-20T03:17:45.258Z,101061.22
2022-08-20T03:20:13.364Z,101075.09
2022-08-20T03:22:40.532Z,101067.13
2022-08-20T03:25:07.450Z,101070.66
2022-08-20T03:27:36.284Z,101068.34
2022-08-20T03:30:05.800Z,101069.25
2022-08-20T03:32:32.312Z,101063.13
2022-08-20T03:34:58.838Z,101065.94
2022-08-20T03:37:25.401Z,101066.75
2022-08-20T03:39:52.171Z,101059.63
2022-08-20T03:42:18.759Z,101063.03
2022-08-20T03:44:45.237Z,101061.16
2022-08-20T03:47:12.058Z,101056.72
2022-08-20T03:49:38.530Z,101055.94
2022-08-20T03:52:05.538Z,101060.44
2022-08-20T03:54:32.314Z,101068.97
2022-08-20T03:56:59.816Z,101066.50
2022-08-20T03:59:26.369Z,101065.63
2022-08-20T04:01:52.910Z,101070.66
2022-08-20T04:04:20.536Z,101069.06
2022-08-20T04:06:47.646Z,101075.06
2022-08-20T04:09:14.783Z,101078.50
2022-08-20T04:11:42.281Z,101083.84
2022-08-20T04:14:11.113Z,101087.00
2022-08-20T04:16:39.518Z,101083.47
2022-08-20T04:19:06.275Z,101089.56
2022-08-20T04:21:33.946Z,101097.47
2022-08-20T04:24:02.501Z,101098.41
2022-08-20T04:26:29.702Z,101097.31
2022-08-20T04:28:56.209Z,101111.66
2022-08-20T04:31:33.377Z,101107.25
2022-08-20T04:34:07.929Z,101117.50
2022-08-20T04:36:35.445Z,101119.22
2022-08-20T04:39:02.007Z,101111.44
2022-08-20T04:41:28.501Z,101122.44
2022-08-20T04:43:56.185Z,101120.16
2022-08-20T04:46:25.975Z,101118.19
2022-08-20T04:48:52.828Z,101121.53
2022-08-20T04:51:23.091Z,101125.53
2022-08-20T04:53:53.341Z,101117.50
2022-08-20T04:56:25.968Z,101114.16
2022-08-20T04:58:54.463Z,101108.88
2022-08-20T05:01:23.095Z,101115.88
2022-08-20T05:03:50.213Z,101114.84
2022-08-20T05:06:18.098Z,101117.59
2022-08-20T05:08:45.010Z,101125.22
2022-08-20T05:11:33.143Z,101118.94
2022-08-20T05:13:58.395Z,101124.84
2022-08-20T05:16:25.006Z,101120.25
2022-08-20T05:18:52.623Z,101129.06
2022-08-20T05:21:20.306Z,101126.63
2022-08-20T05:23:47.227Z,101126.41
2022-08-20T05:26:16.045Z,101118.19
2022-08-20T05:28:49.972Z,101124.31
2022-08-20T05:31:24.034Z,101118.84
2022-08-20T05:33:59.440Z,101130.19
2022-08-20T05:36:25.930Z,101124.09
2022-08-20T05:38:54.682Z,101128.28
2022-08-20T05:41:27.590Z,101119.69
2022-08-20T05:43:56.305Z,101116.25
2022-08-20T05:46:23.177Z,101121.72
2022-08-20T05:48:49.707Z,101129.75
2022-08-20T05:51:16.233Z,101132.84
2022-08-20T05:53:42.713Z,101132.41
2022-08-20T05:56:11.299Z,101131.13
2022-08-20T05:58:38.067Z,101134.47
2022-08-20T06:01:05.389Z,101140.53
2022-08-20T06:03:52.576Z,101136.91
2022-08-20T06:06:44.134Z,101139.63
2022-08-20T06:09:05.804Z,101141.88
2022-08-20T06:11:36.483Z,101141.16
2022-08-20T06:14:03.862Z,101136.84
2022-08-20T06:16:30.513Z,101141.22
2022-08-20T06:18:58.627Z,101138.28
2022-08-20T06:21:25.692Z,101142.44
2022-08-20T06:23:57.336Z,101141.44
2022-08-20T06:26:30.071Z,101137.97
2022-08-20T06:29:01.042Z,101143.22
2022-08-20T06:31:27.999Z,101133.88
2022-08-20T06:33:54.598Z,101132.72
2022-08-20T06:36:21.306Z,101141.97
2022-08-20T06:38:47.826Z,101137.63
2022-08-20T06:41:14.327Z,101143.13
2022-08-20T06:43:41.089Z,101145.59
2022-08-20T06:46:08.249Z,101154.06
2022-08-20T06:48:34.780Z,101153.19
2022-08-20T06:51:01.602Z,101142.69
2022-08-20T06:53:29.080Z,101139.44
2022-08-20T06:55:58.827Z,101141.56
2022-08-20T06:58:37.988Z,101149.31
2022-08-20T07:01:11.087Z,101153.47
2022-08-20T07:03:54.456Z,101154.16
2022-08-20T07:06:25.011Z,101151.84
2022-08-20T07:08:51.567Z,101148.56
2022-08-20T07:11:18.057Z,101158.38
2022-08-20T07:13:45.427Z,101151.16
2022-08-20T07:16:11.916Z,101158.53
2022-08-20T07:18:38.397Z,101147.81
2022-08-20T07:21:05.037Z,101158.13
2022-08-20T07:23:31.808Z,101159.03
2022-08-20T07:25:58.490Z,101166.84
2022-08-20T07:28:28.687Z,101162.34
2022-08-20T07:31:16.007Z,101167.59
2022-08-20T07:33:44.557Z,101170.41
2022-08-20T07:36:12.145Z,101180.75
2022-08-20T07:38:38.803Z,101175.94
2022-08-20T07:41:14.849Z,101180.75
2022-08-20T07:43:43.742Z,101171.03
2022-08-20T07:46:10.256Z,101166.44
2022-08-20T07:48:40.076Z,101170.25
2022-08-20T07:51:08.110Z,101179.31
2022-08-20T07:53:36.506Z,101175.03
2022-08-20T07:56:12.732Z,101172.34
2022-08-20T07:58:42.252Z,101180.53
2022-08-20T08:01:10.643Z,101181.66
2022-08-20T08:03:40.679Z,101188.19
2022-08-20T08:06:29.310Z,101191.22
2022-08-20T08:09:03.482Z,101184.25
2022-08-20T08:11:31.754Z,101191.00
2022-08-20T08:13:59.101Z,101195.44
2022-08-20T08:16:25.602Z,101190.44
2022-08-20T08:18:56.365Z,101195.09
2022-08-20T08:21:23.676Z,101198.94
2022-08-20T08:23:50.677Z,101199.63
2022-08-20T08:26:19.105Z,101203.31
2022-08-20T08:28:46.458Z,101201.22
2022-08-20T08:31:14.278Z,101201.75
2022-08-20T08:33:42.163Z,101197.41
2022-08-20T08:36:15.441Z,101194.66
2022-08-20T08:38:44.726Z,101206.69
2022-08-20T08:41:16.379Z,101207.22
2022-08-20T08:43:51.188Z,101201.97
2022-08-20T08:46:22.910Z,101196.53
2022-08-20T08:48:53.526Z,101204.16
2022-08-20T08:51:27.566Z,101209.34
2022-08-20T08:53:55.837Z,101201.03
2022-08-20T08:56:28.443Z,101207.13
2022-08-20T08:58:59.448Z,101207.81
2022-08-20T09:01:56.003Z,101201.13
2022-08-20T09:04:14.428Z,101200.19
2022-08-20T09:06:41.766Z,101208.91
2022-08-20T09:09:18.981Z,101216.94
2022-08-20T09:12:03.380Z,101212.28
2022-08-20T09:14:30.559Z,101211.78
2022-08-20T09:16:57.350Z,101209.88
2022-08-20T09:19:23.889Z,101212.56
2022-08-20T09:21:50.443Z,101207.50
2022-08-20T09:24:17.222Z,101218.03
2022-08-20T09:26:44.045Z,101219.06
2022-08-20T09:29:12.163Z,101216.63
2022-08-20T09:31:39.323Z,101217.63
2022-08-20T09:34:06.374Z,101229.84
2022-08-20T09:36:36.553Z,101224.13
2022-08-20T09:39:08.037Z,101220.75
2022-08-20T09:41:37.516Z,101215.31
2022-08-20T09:44:04.292Z,101219.03
2022-08-20T09:46:30.946Z,101212.59
2022-08-20T09:48:57.552Z,101207.66
2022-08-20T09:51:24.373Z,101216.16
2022-08-20T09:53:51.624Z,101212.44
2022-08-20T09:56:18.630Z,101223.13
2022-08-20T09:58:53.920Z,101225.56
2022-08-20T10:01:28.575Z,101218.44
2022-08-20T10:03:56.272Z,101221.72
2022-08-20T10:06:22.986Z,101218.50
2022-08-20T10:08:55.826Z,101228.00
2022-08-20T10:11:22.472Z,101220.75
2022-08-20T10:13:49.034Z,101216.31
2022-08-20T10:16:15.734Z,101219.25
2022-08-20T10:18:42.301Z,101219.13
2022-08-20T10:21:12.960Z,101224.56
2022-08-20T10:23:39.880Z,101225.34
2022-08-20T10:26:11.363Z,101216.06
2022-08-20T10:28:41.034Z,101219.97
2022-08-20T10:31:12.534Z,101221.06
2022-08-20T10:33:51.124Z,101221.94
2022-08-20T10:36:22.089Z,101224.03
2022-08-20T10:38:49.687Z,101226.16
2022-08-20T10:41:20.989Z,101224.88
2022-08-20T10:43:53.165Z,101222.91
2022-08-20T10:46:22.108Z,101236.09
2022-08-20T10:48:49.891Z,101232.94
2022-08-20T10:51:17.146Z,101227.66
2022-08-20T10:53:47.776Z,101233.03
2022-08-20T10:56:19.596Z,101229.75
2022-08-20T10:58:49.075Z,101240.72
2022-08-20T11:01:31.647Z,101238.81
2022-08-20T11:04:03.210Z,101243.03
2022-08-20T11:06:29.891Z,101233.63
2022-08-20T11:08:56.979Z,101246.16
2022-08-20T11:11:23.789Z,101254.13
2022-08-20T11:13:50.257Z,101247.50
2022-08-20T11:16:16.820Z,101251.19
2022-08-20T11:18:47.497Z,101244.53
2022-08-20T11:21:14.248Z,101246.97
2022-08-20T11:23:40.747Z,101253.59
2022-08-20T11:26:07.270Z,101250.91
2022-08-20T11:28:33.865Z,101256.41
2022-08-20T11:31:01.781Z,101258.13
2022-08-20T11:33:28.531Z,101255.59
2022-08-20T11:35:55.084Z,101255.44
2022-08-20T11:38:21.553Z,101258.84
2022-08-20T11:40:48.148Z,101255.25
2022-08-20T11:43:16.726Z,101253.69
2022-08-20T11:45:46.108Z,101256.03
2022-08-20T11:48:12.724Z,101250.53
2022-08-20T11:50:39.218Z,101246.50
2022-08-20T11:53:05.691Z,101252.63
2022-08-20T11:55:34.503Z,101251.91
2022-08-20T11:58:01.690Z,101254.03
2022-08-20T12:00:33.167Z,101258.88
2022-08-20T12:03:08.998Z,101257.63
2022-08-20T12:05:38.003Z,101252.22
2022-08-20T12:08:05.145Z,101251.56
2022-08-20T12:10:32.542Z,101253.28
2022-08-20T12:12:59.288Z,101256.63
2022-08-20T12:15:29.381Z,101265.25
2022-08-20T12:17:56.211Z,101262.50
2022-08-20T12:20:23.457Z,101252.38
2022-08-20T12:22:50.327Z,101262.47
2022-08-20T12:25:16.894Z,101267.13
2022-08-20T12:27:43.377Z,101270.16
2022-08-20T12:30:20.032Z,101272.41
2022-08-20T12:32:46.960Z,101272.28
2022-08-20T12:35:15.215Z,101273.28
2022-08-20T12:37:42.610Z,101278.06
2022-08-20T12:40:13.812Z,101279.53
2022-08-20T12:42:40.667Z,101287.03
2022-08-20T12:45:08.222Z,101275.91
2022-08-20T12:47:37.685Z,101281.72
2022-08-20T12:50:22.544Z,101286.03
2022-08-20T12:52:49.796Z,101282.28
2022-08-20T12:55:18.744Z,101287.28
2022-08-20T12:57:52.489Z,101275.88
2022-08-20T13:00:24.297Z,101286.25
2022-08-20T13:02:55.195Z,101282.38
2022-08-20T13:05:22.695Z,101286.38
2022-08-20T13:07:49.584Z,101289.66
2022-08-20T13:10:19.410Z,101288.47
2022-08-20T13:12:45.921Z,101286.38
2022-08-20T13:15:12.670Z,101290.31
2022-08-20T13:17:39.642Z,101291.44
2022-08-20T13:20:09.131Z,101291.41
2022-08-20T13:22:35.757Z,101296.66
2022-08-20T13:25:02.437Z,101292.19
2022-08-20T13:27:28.939Z,101297.25
2022-08-20T13:29:58.897Z,101298.25
2022-08-20T13:32:26.836Z,101301.78
2022-08-20T13:34:53.494Z,101289.19
2022-08-20T13:37:25.618Z,101279.91
2022-08-20T13:39:53.528Z,101289.72
2022-08-20T13:42:20.707Z,101289.81
2022-08-20T13:44:48.062Z,101287.88
2022-08-20T13:47:15.064Z,101288.94
2022-08-20T13:49:41.732Z,101289.78
2022-08-20T13:52:08.435Z,101284.22
2022-08-20T13:54:35.021Z,101285.91
2022-08-20T13:57:14.790Z,101283.72
2022-08-20T13:59:44.031Z,101287.78
2022-08-20T14:02:11.741Z,101283.53
2022-08-20T14:04:38.631Z,101282.25
2022-08-20T14:07:16.659Z,101287.03
2022-08-20T14:09:46.048Z,101284.69
2022-08-20T14:12:13.494Z,101283.47
2022-08-20T14:14:40.534Z,101281.50
2022-08-20T14:17:16.326Z,101276.31
2022-08-20T14:19:43.386Z,101288.72
2022-08-20T14:22:09.955Z,101278.94
2022-08-20T14:24:36.612Z,101287.41
2022-08-20T14:27:07.802Z,101284.06
2022-08-20T14:29:36.648Z,101292.22
2022-08-20T14:32:04.580Z,101296.97
2022-08-20T14:34:31.942Z,101298.69
2022-08-20T14:37:19.754Z,101286.53
2022-08-20T14:39:48.832Z,101286.22
2022-08-20T14:42:16.009Z,101272.81
2022-08-20T14:44:43.117Z,101276.53
2022-08-20T14:47:18.659Z,101275.81
2022-08-20T14:49:46.713Z,101285.59
2022-08-20T14:52:14.517Z,101278.53
2022-08-20T14:54:41.685Z,101291.97
2022-08-20T14:57:12.804Z,101287.81
2022-08-20T14:59:40.314Z,101289.28
2022-08-20T15:02:08.453Z,101292.09
2022-08-20T15:04:35.625Z,101290.91
2022-08-20T15:07:07.961Z,101291.53
2022-08-20T15:09:37.669Z,101286.91
2022-08-20T15:12:04.665Z,101294.13
2022-08-20T15:14:31.139Z,101288.31
2022-08-20T15:16:58.155Z,101288.00
2022-08-20T15:19:24.633Z,101296.88
2022-08-20T15:21:51.304Z,101300.19
2022-08-20T15:24:19.295Z,101289.47
2022-08-20T15:26:46.276Z,101291.72
2022-08-20T15:29:12.989Z,101303.94
2022-08-20T15:31:49.627Z,101306.00
2022-08-20T15:34:17.629Z,101308.78
2022-08-20T15:36:44.952Z,101303.25
2022-08-20T15:39:11.525Z,101306.97
2022-08-20T15:41:38.005Z,101313.38
2022-08-20T15:44:04.919Z,101313.94
2022-08-20T15:46:36.161Z,101307.47
2022-08-20T15:49:08.629Z,101312.19
2022-08-20T15:51:42.913Z,101312.97
2022-08-20T15:54:21.982Z,101315.06
2022-08-20T15:57:04.363Z,101318.19
2022-08-20T15:59:48.282Z,101319.06
2022-08-20T16:02:40.186Z,101317.41
2022-08-20T16:05:44.636Z,101334.03
2022-08-20T16:08:22.715Z,101322.88
2022-08-20T16:10:54.441Z,101324.50
2022-08-20T16:13:36.489Z,101326.75
2022-08-20T16:16:04.249Z,101331.81
2022-08-20T16:18:33.745Z,101331.06
2022-08-20T16:21:03.591Z,101336.00
2022-08-20T16:23:35.487Z,101331.53
2022-08-20T16:26:26.405Z,101339.38
2022-08-20T16:29:20.199Z,101334.84
2022-08-20T16:31:51.973Z,101338.63
2022-08-20T16:34:34.414Z,101336.75
2022-08-20T16:37:19.441Z,101338.59
2022-08-20T16:39:56.251Z,101339.47
2022-08-20T16:42:24.802Z,101339.38
2022-08-20T16:44:54.875Z,101343.34
2022-08-20T16:47:27.141Z,101340.25
2022-08-20T16:50:12.666Z,101346.66
2022-08-20T16:52:41.852Z,101345.50
2022-08-20T16:55:08.943Z,101353.16
2022-08-20T16:57:35.540Z,101355.31
2022-08-20T17:00:16.837Z,101358.06
2022-08-20T17:03:01.346Z,101362.25
2022-08-20T17:05:31.942Z,101364.19
2022-08-20T17:08:03.716Z,101364.72
2022-08-20T17:10:37.502Z,101367.84
2022-08-20T17:13:19.795Z,101377.03
2022-08-20T17:15:54.206Z,101368.25
2022-08-20T17:18:42.037Z,101371.13
2022-08-20T17:21:11.533Z,101372.25
2022-08-20T17:23:55.221Z,101375.66
2022-08-20T17:26:30.479Z,101379.19
2022-08-20T17:29:00.453Z,101383.78
2022-08-20T17:31:31.545Z,101375.69
2022-08-20T17:34:23.296Z,101379.16
2022-08-20T17:37:05.710Z,101383.34
2022-08-20T17:39:32.322Z,101379.06
2022-08-20T17:42:08.932Z,101388.25
2022-08-20T17:44:38.210Z,101382.41
2022-08-20T17:47:11.866Z,101376.91
2022-08-20T17:50:03.881Z,101382.69
2022-08-20T17:52:35.349Z,101380.72
2022-08-20T17:55:03.042Z,101378.34
2022-08-20T17:57:33.833Z,101385.34
2022-08-20T18:00:25.680Z,101381.16
2022-08-20T18:03:14.096Z,101381.88
2022-08-20T18:05:40.650Z,101380.44
2022-08-20T18:08:20.698Z,101375.72
2022-08-20T18:11:14.582Z,101380.59
2022-08-20T18:13:52.756Z,101373.66
2022-08-20T18:16:28.197Z,101376.31
2022-08-20T18:19:03.806Z,101386.63
2022-08-20T18:21:41.752Z,101379.16
2022-08-20T18:24:12.398Z,101382.75
2022-08-20T18:26:44.029Z,101380.66
2022-08-20T18:29:37.398Z,101368.72
2022-08-20T18:32:06.657Z,101376.16
2022-08-20T18:34:39.662Z,101378.91
2022-08-20T18:37:22.197Z,101383.19
2022-08-20T18:39:50.580Z,101382.31
2022-08-20T18:42:31.385Z,101382.91
2022-08-20T18:44:58.917Z,101393.84
2022-08-20T18:47:34.487Z,101399.97
2022-08-20T18:50:07.498Z,101385.56
2022-08-20T18:52:49.011Z,101393.34
2022-08-20T18:55:36.951Z,101397.25
2022-08-20T18:58:07.193Z,101408.56
2022-08-20T19:00:41.270Z,101404.84
2022-08-20T19:03:09.950Z,101414.66
2022-08-20T19:06:08.537Z,101415.06
2022-08-20T19:08:51.581Z,101418.13
2022-08-20T19:12:03.322Z,101409.34
2022-08-20T19:14:41.180Z,101419.13
2022-08-20T19:17:15.840Z,101415.06
2022-08-20T19:19:44.080Z,101422.75
2022-08-20T19:22:13.544Z,101410.34
2022-08-20T19:24:44.329Z,101426.84
2022-08-20T19:27:12.400Z,101415.22
2022-08-20T19:29:50.710Z,101412.28
2022-08-20T19:32:26.973Z,101413.81
2022-08-20T19:34:56.432Z,101412.41
2022-08-20T19:37:39.767Z,101418.31
2022-08-20T19:40:38.905Z,101422.84
2022-08-20T19:43:12.848Z,101422.00
2022-08-20T19:45:44.547Z,101429.38
2022-08-20T19:48:36.916Z,101432.16
2022-08-20T19:51:13.650Z,101431.47
2022-08-20T19:53:46.245Z,101429.03
2022-08-20T19:56:19.484Z,101422.06
2022-08-20T19:58:57.329Z,101429.78
2022-08-20T20:01:24.545Z,101433.63
2022-08-20T20:03:57.603Z,101429.25
2022-08-20T20:06:25.692Z,101424.94
2022-08-20T20:08:59.830Z,101422.31
2022-08-20T20:11:49.729Z,101421.63
2022-08-20T20:14:17.685Z,101426.94
2022-08-20T20:16:46.385Z,101419.09
2022-08-20T20:19:29.366Z,101419.84
2022-08-20T20:22:18.999Z,101420.59
2022-08-20T20:25:03.065Z,101422.47
2022-08-20T20:27:32.201Z,101422.06
2022-08-20T20:30:11.121Z,101424.63
2022-08-20T20:32:48.346Z,101419.19
2022-08-20T20:35:31.649Z,101420.22
2022-08-20T20:38:10.771Z,101417.44
2022-08-20T20:40:47.169Z,101425.63
2022-08-20T20:43:30.872Z,101431.91
2022-08-20T20:46:19.793Z,101423.84
2022-08-20T20:48:53.009Z,101418.56
2022-08-20T20:51:25.782Z,101427.56
2022-08-20T20:53:54.985Z,101421.34
2022-08-20T20:56:37.844Z,101419.75
2022-08-20T20:59:06.999Z,101419.59
2022-08-20T21:01:49.870Z,101420.41
2022-08-20T21:04:22.178Z,101422.31
2022-08-20T21:06:49.736Z,101427.69
2022-08-20T21:09:16.767Z,101422.41
2022-08-20T21:11:43.333Z,101424.16
2022-08-20T21:14:10.171Z,101415.25
2022-08-20T21:16:36.723Z,101415.41
2022-08-20T21:19:07.846Z,101411.09
2022-08-20T21:21:34.620Z,101411.19
2022-08-20T21:24:01.272Z,101405.09
2022-08-20T21:26:28.221Z,101411.19
2022-08-20T21:28:55.012Z,101411.09
2022-08-20T21:31:21.748Z,101411.09
2022-08-20T21:33:48.477Z,101409.47
2022-08-20T21:36:15.618Z,101414.72
2022-08-20T21:38:42.111Z,101420.00
2022-08-20T21:41:08.656Z,101419.19
2022-08-20T21:43:35.995Z,101424.47
2022-08-20T21:46:04.088Z,101417.50
2022-08-20T21:48:31.772Z,101416.72
2022-08-20T21:50:58.248Z,101422.88
2022-08-20T21:53:24.764Z,101409.75
2022-08-20T21:55:51.806Z,101416.75
2022-08-20T21:58:19.013Z,101419.38
2022-08-20T22:00:48.557Z,101416.78
2022-08-20T22:03:16.929Z,101416.84
2022-08-20T22:05:47.134Z,101415.06
2022-08-20T22:08:13.808Z,101416.78
2022-08-20T22:10:40.515Z,101422.94
2022-08-20T22:13:07.409Z,101417.75
2022-08-20T22:15:34.207Z,101409.84
2022-08-20T22:18:01.500Z,101409.06
2022-08-20T22:20:29.874Z,101418.69
2022-08-20T22:22:57.865Z,101421.34
2022-08-20T22:25:24.542Z,101408.16
2022-08-20T22:27:51.043Z,101414.28
2022-08-20T22:30:17.656Z,101407.31
2022-08-20T22:32:51.763Z,101408.22
2022-08-20T22:35:19.284Z,101402.09
2022-08-20T22:37:45.941Z,101399.50
2022-08-20T22:40:12.696Z,101405.63
2022-08-20T22:42:39.812Z,101388.97
2022-08-20T22:45:14.941Z,101395.16
2022-08-20T22:47:42.767Z,101404.78
2022-08-20T22:50:11.331Z,101407.41
2022-08-20T22:52:39.493Z,101400.38
2022-08-20T22:55:06.826Z,101399.50
2022-08-20T22:57:34.271Z,101391.66
2022-08-20T23:00:01.375Z,101387.28
2022-08-20T23:02:28.440Z,101385.50
2022-08-20T23:04:55.218Z,101385.50
2022-08-20T23:07:22.433Z,101391.69
2022-08-20T23:09:50.056Z,101384.66
2022-08-20T23:12:16.648Z,101389.94
2022-08-20T23:14:43.129Z,101378.53
2022-08-20T23:17:20.057Z,101370.66
2022-08-20T23:19:47.945Z,101386.44
2022-08-20T23:22:15.280Z,101382.03
2022-08-20T23:24:42.122Z,101380.28
2022-08-20T23:27:10.738Z,101376.81
2022-08-20T23:29:37.697Z,101367.13
2022-08-20T23:32:04.468Z,101367.13
2022-08-20T23:34:30.976Z,101363.63
2022-08-20T23:36:57.782Z,101375.91
2022-08-20T23:39:25.283Z,101363.66
2022-08-20T23:41:52.116Z,101363.63
2022-08-20T23:44:26.656Z,101363.66
2022-08-20T23:46:58.891Z,101368.91
2022-08-20T23:49:26.698Z,101367.19
2022-08-20T23:51:53.713Z,101363.66
2022-08-20T23:54:20.249Z,101365.41
2022-08-20T23:56:46.906Z,101373.25
2022-08-20T23:59:13.386Z,101369.75
